sensor_id;sensor_type;location;lat;lon;timestamp;pressure;altitude;pressure_sealevel;temperature;humidity
41632;BME280;37452;51.938;4.624;2023-05-23T00:00:49;77117.56;;;-142.75;100.00
41632;BME280;37452;51.938;4.624;2023-05-23T00:03:15;77121.50;;;-142.75;100.00
41632;BME280;37452;51.938;4.624;2023-05-23T00:05:41;77103.78;;;-142.75;100.00
41632;BME280;37452;51.938;4.624;2023-05-23T00:08:06;77121.50;;;-142.75;100.00
41632;BME280;37452;51.938;4.624;2023-05-23T00:10:31;77125.44;;;-142.75;100.00
41632;BME280;37452;51.938;4.624;2023-05-23T00:12:56;77121.50;;;-142.75;100.00
41632;BME280;37452;51.938;4.624;2023-05-23T00:15:22;77115.59;;;-142.75;100.00
41632;BME280;37452;51.938;4.624;2023-05-23T00:17:47;77127.41;;;-142.75;100.00
41632;BME280;37452;51.938;4.624;2023-05-23T00:20:12;77115.59;;;-142.75;100.00
41632;BME280;37452;51.938;4.624;2023-05-23T00:22:38;77109.69;;;-142.75;100.00
41632;BME280;37452;51.938;4.624;2023-05-23T00:25:06;77099.84;;;-142.75;100.00
41632;BME280;37452;51.938;4.624;2023-05-23T00:27:32;77117.56;;;-142.75;100.00
41632;BME280;37452;51.938;4.624;2023-05-23T00:29:58;77103.78;;;-142.75;100.00
41632;BME280;37452;51.938;4.624;2023-05-23T00:32:23;77125.44;;;-142.75;100.00
41632;BME280;37452;51.938;4.624;2023-05-23T00:34:48;77117.56;;;-142.75;100.00
41632;BME280;37452;51.938;4.624;2023-05-23T00:37:13;77113.63;;;-142.75;100.00
41632;BME280;37452;51.938;4.624;2023-05-23T00:39:39;77105.75;;;-142.75;100.00
41632;BME280;37452;51.938;4.624;2023-05-23T00:42:04;77103.78;;;-142.75;100.00
41632;BME280;37452;51.938;4.624;2023-05-23T00:44:30;77117.56;;;-142.75;100.00
41632;BME280;37452;51.938;4.624;2023-05-23T00:46:55;77103.78;;;-142.75;100.00
41632;BME280;37452;51.938;4.624;2023-05-23T00:49:21;77105.75;;;-142.75;100.00
41632;BME280;37452;51.938;4.624;2023-05-23T00:51:47;77103.78;;;-142.75;100.00
41632;BME280;37452;51.938;4.624;2023-05-23T00:54:25;77115.59;;;-142.75;100.00
41632;BME280;37452;51.938;4.624;2023-05-23T00:56:51;77090.00;;;-142.75;100.00
41632;BME280;37452;51.938;4.624;2023-05-23T00:59:17;77093.94;;;-142.75;100.00
41632;BME280;37452;51.938;4.624;2023-05-23T01:01:42;77103.78;;;-142.75;100.00
41632;BME280;37452;51.938;4.624;2023-05-23T01:04:10;77105.75;;;-142.75;100.00
41632;BME280;37452;51.938;4.624;2023-05-23T01:06:37;77105.75;;;-142.75;100.00
41632;BME280;37452;51.938;4.624;2023-05-23T01:09:02;77105.75;;;-142.75;100.00
41632;BME280;37452;51.938;4.624;2023-05-23T01:11:36;77121.50;;;-142.75;100.00
41632;BME280;37452;51.938;4.624;2023-05-23T01:14:11;77113.63;;;-142.75;100.00
41632;BME280;37452;51.938;4.624;2023-05-23T01:16:41;77101.81;;;-142.75;100.00
41632;BME280;37452;51.938;4.624;2023-05-23T01:21:37;77072.28;;;-142.75;100.00
41632;BME280;37452;51.938;4.624;2023-05-23T01:29:10;77086.06;;;-142.75;100.00
41632;BME280;37452;51.938;4.624;2023-05-23T01:31:38;77090.00;;;-142.75;100.00
41632;BME280;37452;51.938;4.624;2023-05-23T01:34:05;77084.09;;;-142.75;100.00
41632;BME280;37452;51.938;4.624;2023-05-23T01:36:32;77101.81;;;-142.75;100.00
41632;BME280;37452;51.938;4.624;2023-05-23T01:38:59;77086.06;;;-142.75;100.00
41632;BME280;37452;51.938;4.624;2023-05-23T01:41:24;77105.75;;;-142.75;100.00
41632;BME280;37452;51.938;4.624;2023-05-23T01:43:49;77099.84;;;-142.75;100.00
41632;BME280;37452;51.938;4.624;2023-05-23T01:46:15;77103.78;;;-142.75;100.00
41632;BME280;37452;51.938;4.624;2023-05-23T01:48:40;77115.59;;;-142.75;100.00
41632;BME280;37452;51.938;4.624;2023-05-23T01:51:06;77117.56;;;-142.75;100.00
41632;BME280;37452;51.938;4.624;2023-05-23T01:53:31;77129.38;;;-142.75;100.00
41632;BME280;37452;51.938;4.624;2023-05-23T01:55:58;77131.34;;;-142.75;100.00
41632;BME280;37452;51.938;4.624;2023-05-23T01:58:27;77139.22;;;-142.75;100.00
41632;BME280;37452;51.938;4.624;2023-05-23T02:00:53;77141.19;;;-142.75;100.00
41632;BME280;37452;51.938;4.624;2023-05-23T02:03:18;77141.19;;;-142.75;100.00
41632;BME280;37452;51.938;4.624;2023-05-23T02:05:43;77149.06;;;-142.75;100.00
41632;BME280;37452;51.938;4.624;2023-05-23T02:08:08;77147.09;;;-142.75;100.00
41632;BME280;37452;51.938;4.624;2023-05-23T02:10:33;77156.94;;;-142.75;100.00
41632;BME280;37452;51.938;4.624;2023-05-23T02:12:59;77156.94;;;-142.75;100.00
41632;BME280;37452;51.938;4.624;2023-05-23T02:15:24;77147.09;;;-142.75;100.00
41632;BME280;37452;51.938;4.624;2023-05-23T02:17:49;77154.97;;;-142.75;100.00
41632;BME280;37452;51.938;4.624;2023-05-23T02:20:15;77145.13;;;-142.75;100.00
41632;BME280;37452;51.938;4.624;2023-05-23T02:22:42;77154.97;;;-142.75;100.00
41632;BME280;37452;51.938;4.624;2023-05-23T02:25:08;77158.91;;;-142.75;100.00
41632;BME280;37452;51.938;4.624;2023-05-23T02:27:33;77162.84;;;-142.75;100.00
41632;BME280;37452;51.938;4.624;2023-05-23T02:29:58;77160.88;;;-142.75;100.00
41632;BME280;37452;51.938;4.624;2023-05-23T02:32:23;77164.81;;;-142.75;100.00
41632;BME280;37452;51.938;4.624;2023-05-23T02:34:48;77164.81;;;-142.75;100.00
41632;BME280;37452;51.938;4.624;2023-05-23T02:37:14;77172.69;;;-142.75;100.00
41632;BME280;37452;51.938;4.624;2023-05-23T02:39:40;77176.63;;;-142.75;100.00
41632;BME280;37452;51.938;4.624;2023-05-23T02:42:05;77192.38;;;-142.75;100.00
41632;BME280;37452;51.938;4.624;2023-05-23T02:44:31;77194.34;;;-142.75;100.00
41632;BME280;37452;51.938;4.624;2023-05-23T02:46:56;77212.06;;;-142.75;100.00
41632;BME280;37452;51.938;4.624;2023-05-23T02:49:22;77202.22;;;-142.75;100.00
41632;BME280;37452;51.938;4.624;2023-05-23T02:51:47;77212.06;;;-142.75;100.00
41632;BME280;37452;51.938;4.624;2023-05-23T02:54:12;77212.06;;;-142.75;100.00
41632;BME280;37452;51.938;4.624;2023-05-23T02:56:37;77200.25;;;-142.75;100.00
41632;BME280;37452;51.938;4.624;2023-05-23T02:59:03;77216.00;;;-142.75;100.00
41632;BME280;37452;51.938;4.624;2023-05-23T03:01:28;77219.94;;;-142.75;100.00
41632;BME280;37452;51.938;4.624;2023-05-23T03:03:53;77243.56;;;-142.75;100.00
41632;BME280;37452;51.938;4.624;2023-05-23T03:06:18;77235.69;;;-142.75;100.00
41632;BME280;37452;51.938;4.624;2023-05-23T03:08:46;77243.56;;;-142.75;100.00
41632;BME280;37452;51.938;4.624;2023-05-23T03:11:11;77253.41;;;-142.75;100.00
41632;BME280;37452;51.938;4.624;2023-05-23T03:13:36;77259.31;;;-142.75;100.00
41632;BME280;37452;51.938;4.624;2023-05-23T03:16:02;77247.50;;;-142.75;100.00
41632;BME280;37452;51.938;4.624;2023-05-23T03:18:27;77247.50;;;-142.75;100.00
41632;BME280;37452;51.938;4.624;2023-05-23T03:20:52;77265.22;;;-142.75;100.00
41632;BME280;37452;51.938;4.624;2023-05-23T03:23:17;77259.31;;;-142.75;100.00
41632;BME280;37452;51.938;4.624;2023-05-23T03:25:42;77273.09;;;-142.75;100.00
41632;BME280;37452;51.938;4.624;2023-05-23T03:28:08;77292.78;;;-142.75;100.00
41632;BME280;37452;51.938;4.624;2023-05-23T03:30:33;77290.81;;;-142.75;100.00
41632;BME280;37452;51.938;4.624;2023-05-23T03:32:58;77290.81;;;-142.75;100.00
41632;BME280;37452;51.938;4.624;2023-05-23T03:35:24;77302.63;;;-142.75;100.00
41632;BME280;37452;51.938;4.624;2023-05-23T03:37:49;77306.56;;;-142.75;100.00
41632;BME280;37452;51.938;4.624;2023-05-23T03:40:14;77330.19;;;-142.75;100.00
41632;BME280;37452;51.938;4.624;2023-05-23T03:42:40;77304.59;;;-142.75;100.00
41632;BME280;37452;51.938;4.624;2023-05-23T03:45:05;77304.59;;;-142.75;100.00
41632;BME280;37452;51.938;4.624;2023-05-23T03:47:30;77314.44;;;-142.75;100.00
41632;BME280;37452;51.938;4.624;2023-05-23T03:49:56;77318.38;;;-142.75;100.00
41632;BME280;37452;51.938;4.624;2023-05-23T03:52:21;77308.53;;;-142.75;100.00
41632;BME280;37452;51.938;4.624;2023-05-23T03:54:46;77324.28;;;-142.75;100.00
41632;BME280;37452;51.938;4.624;2023-05-23T03:57:12;77314.44;;;-142.75;100.00
41632;BME280;37452;51.938;4.624;2023-05-23T03:59:37;77310.50;;;-142.75;100.00
41632;BME280;37452;51.938;4.624;2023-05-23T04:02:02;77318.38;;;-142.75;100.00
41632;BME280;37452;51.938;4.624;2023-05-23T04:04:28;77330.19;;;-142.75;100.00
41632;BME280;37452;51.938;4.624;2023-05-23T04:06:53;77330.19;;;-142.75;100.00
41632;BME280;37452;51.938;4.624;2023-05-23T04:09:18;77365.63;;;-142.75;100.00
41632;BME280;37452;51.938;4.624;2023-05-23T04:11:43;77355.78;;;-142.75;100.00
41632;BME280;37452;51.938;4.624;2023-05-23T04:14:09;77389.25;;;-142.75;100.00
41632;BME280;37452;51.938;4.624;2023-05-23T04:16:36;77399.09;;;-142.75;100.00
41632;BME280;37452;51.938;4.624;2023-05-23T04:19:01;77403.03;;;-142.75;100.00
41632;BME280;37452;51.938;4.624;2023-05-23T04:21:28;77410.91;;;-142.75;100.00
41632;BME280;37452;51.938;4.624;2023-05-23T04:23:53;77403.03;;;-142.75;100.00
41632;BME280;37452;51.938;4.624;2023-05-23T04:26:18;77420.75;;;-142.75;100.00
41632;BME280;37452;51.938;4.624;2023-05-23T04:28:44;77434.53;;;-142.75;100.00
41632;BME280;37452;51.938;4.624;2023-05-23T04:31:10;77438.47;;;-142.75;100.00
41632;BME280;37452;51.938;4.624;2023-05-23T04:33:36;77444.38;;;-142.75;100.00
41632;BME280;37452;51.938;4.624;2023-05-23T04:36:01;77471.97;;;-142.75;100.00
41632;BME280;37452;51.938;4.624;2023-05-23T04:38:27;77466.03;;;-142.75;100.00
41632;BME280;37452;51.938;4.624;2023-05-23T04:40:52;77473.94;;;-142.75;100.00
41632;BME280;37452;51.938;4.624;2023-05-23T04:43:18;77489.69;;;-142.75;100.00
41632;BME280;37452;51.938;4.624;2023-05-23T04:45:44;77485.75;;;-142.75;100.00
41632;BME280;37452;51.938;4.624;2023-05-23T04:48:09;77483.78;;;-142.75;100.00
41632;BME280;37452;51.938;4.624;2023-05-23T04:50:36;77483.78;;;-142.75;100.00
41632;BME280;37452;51.938;4.624;2023-05-23T04:53:02;77487.72;;;-142.75;100.00
41632;BME280;37452;51.938;4.624;2023-05-23T04:55:27;77503.47;;;-142.75;100.00
41632;BME280;37452;51.938;4.624;2023-05-23T04:57:52;77507.41;;;-142.75;100.00
41632;BME280;37452;51.938;4.624;2023-05-23T05:00:17;77509.38;;;-142.75;100.00
41632;BME280;37452;51.938;4.624;2023-05-23T05:02:44;77507.41;;;-142.75;100.00
41632;BME280;37452;51.938;4.624;2023-05-23T05:05:09;77521.19;;;-142.75;100.00
41632;BME280;37452;51.938;4.624;2023-05-23T05:07:35;77511.34;;;-142.75;100.00
41632;BME280;37452;51.938;4.624;2023-05-23T05:10:01;77493.63;;;-142.75;100.00
41632;BME280;37452;51.938;4.624;2023-05-23T05:12:26;77507.41;;;-142.75;100.00
41632;BME280;37452;51.938;4.624;2023-05-23T05:14:51;77523.16;;;-142.75;100.00
41632;BME280;37452;51.938;4.624;2023-05-23T05:17:17;77511.34;;;-142.75;100.00
41632;BME280;37452;51.938;4.624;2023-05-23T05:19:43;77511.34;;;-142.75;100.00
41632;BME280;37452;51.938;4.624;2023-05-23T05:22:09;77513.31;;;-142.75;100.00
41632;BME280;37452;51.938;4.624;2023-05-23T05:24:34;77531.03;;;-142.75;100.00
41632;BME280;37452;51.938;4.624;2023-05-23T05:26:59;77523.16;;;-142.75;100.00
41632;BME280;37452;51.938;4.624;2023-05-23T05:29:24;77550.72;;;-142.75;100.00
41632;BME280;37452;51.938;4.624;2023-05-23T05:31:50;77548.75;;;-142.75;100.00
41632;BME280;37452;51.938;4.624;2023-05-23T05:34:16;77534.97;;;-142.75;100.00
41632;BME280;37452;51.938;4.624;2023-05-23T05:36:41;77570.41;;;-142.75;100.00
41632;BME280;37452;51.938;4.624;2023-05-23T05:39:11;77550.72;;;-142.75;100.00
41632;BME280;37452;51.938;4.624;2023-05-23T05:41:37;77566.47;;;-142.75;100.00
41632;BME280;37452;51.938;4.624;2023-05-23T05:44:02;77560.56;;;-142.75;100.00
41632;BME280;37452;51.938;4.624;2023-05-23T05:46:27;77554.66;;;-142.75;100.00
41632;BME280;37452;51.938;4.624;2023-05-23T05:48:52;77556.63;;;-142.75;100.00
41632;BME280;37452;51.938;4.624;2023-05-23T05:51:17;77560.56;;;-142.75;100.00
41632;BME280;37452;51.938;4.624;2023-05-23T05:53:43;77558.59;;;-142.75;100.00
41632;BME280;37452;51.938;4.624;2023-05-23T05:56:08;77534.97;;;-142.75;100.00
41632;BME280;37452;51.938;4.624;2023-05-23T05:58:33;77534.97;;;-142.75;100.00
41632;BME280;37452;51.938;4.624;2023-05-23T06:00:58;77534.97;;;-142.75;100.00
41632;BME280;37452;51.938;4.624;2023-05-23T06:03:24;77523.16;;;-142.75;100.00
41632;BME280;37452;51.938;4.624;2023-05-23T06:05:49;77519.22;;;-142.75;100.00
41632;BME280;37452;51.938;4.624;2023-05-23T06:08:15;77505.44;;;-142.75;100.00
41632;BME280;37452;51.938;4.624;2023-05-23T06:10:40;77503.47;;;-142.75;100.00
41632;BME280;37452;51.938;4.624;2023-05-23T06:13:05;77511.34;;;-142.75;100.00
41632;BME280;37452;51.938;4.624;2023-05-23T06:15:30;77527.09;;;-142.75;100.00
41632;BME280;37452;51.938;4.624;2023-05-23T06:17:55;77531.03;;;-142.75;100.00
41632;BME280;37452;51.938;4.624;2023-05-23T06:20:21;77525.13;;;-142.75;100.00
41632;BME280;37452;51.938;4.624;2023-05-23T06:22:46;77527.09;;;-142.75;100.00
41632;BME280;37452;51.938;4.624;2023-05-23T06:25:11;77548.75;;;-142.75;100.00
41632;BME280;37452;51.938;4.624;2023-05-23T13:40:36;77253.41;;;-142.75;87.58
41632;BME280;37452;51.938;4.624;2023-05-23T13:43:01;77247.50;;;-142.75;87.16
41632;BME280;37452;51.938;4.624;2023-05-23T13:45:27;77253.41;;;-142.75;89.00
41632;BME280;37452;51.938;4.624;2023-05-23T13:47:52;77243.56;;;-142.75;88.50
41632;BME280;37452;51.938;4.624;2023-05-23T13:50:17;77279.00;;;-142.75;88.93
41632;BME280;37452;51.938;4.624;2023-05-23T13:52:43;77298.69;;;-142.75;89.29
41632;BME280;37452;51.938;4.624;2023-05-23T13:55:08;77324.28;;;-142.75;90.03
41632;BME280;37452;51.938;4.624;2023-05-23T13:57:34;77318.38;;;-142.75;90.17
41632;BME280;37452;51.938;4.624;2023-05-23T13:59:59;77314.44;;;-142.75;88.56
41632;BME280;37452;51.938;4.624;2023-05-23T14:02:25;77332.16;;;-142.75;87.31
41632;BME280;37452;51.938;4.624;2023-05-23T14:04:51;77322.31;;;-142.75;90.46
41632;BME280;37452;51.938;4.624;2023-05-23T14:07:17;77306.56;;;-142.75;89.50
41632;BME280;37452;51.938;4.624;2023-05-23T14:09:42;77304.59;;;-142.75;91.13
41632;BME280;37452;51.938;4.624;2023-05-23T14:12:08;77338.06;;;-142.75;87.49
41632;BME280;37452;51.938;4.624;2023-05-23T14:14:33;77355.78;;;-142.75;87.91
41632;BME280;37452;51.938;4.624;2023-05-23T14:16:58;77367.59;;;-142.75;89.15
41632;BME280;37452;51.938;4.624;2023-05-23T14:19:23;77393.19;;;-142.75;88.81
41632;BME280;37452;51.938;4.624;2023-05-23T14:21:49;77395.16;;;-142.75;89.26
41632;BME280;37452;51.938;4.624;2023-05-23T14:24:14;77377.44;;;-142.75;90.06
41632;BME280;37452;51.938;4.624;2023-05-23T14:26:40;77399.09;;;-142.75;89.21
41632;BME280;37452;51.938;4.624;2023-05-23T14:29:05;77420.75;;;-142.75;87.26
41632;BME280;37452;51.938;4.624;2023-05-23T14:31:30;77422.72;;;-142.75;87.88
41632;BME280;37452;51.938;4.624;2023-05-23T14:33:56;77436.50;;;-142.75;89.68
41632;BME280;37452;51.938;4.624;2023-05-23T14:36:21;77432.56;;;-142.75;90.24
41632;BME280;37452;51.938;4.624;2023-05-23T14:38:46;77444.38;;;-142.75;90.25
41632;BME280;37452;51.938;4.624;2023-05-23T14:41:12;77440.44;;;-142.75;92.59
41632;BME280;37452;51.938;4.624;2023-05-23T14:43:38;77422.72;;;-142.75;94.06
41632;BME280;37452;51.938;4.624;2023-05-23T14:46:03;77450.28;;;-142.75;90.25
41632;BME280;37452;51.938;4.624;2023-05-23T14:48:28;77477.88;;;-142.75;88.35
41632;BME280;37452;51.938;4.624;2023-05-23T14:50:54;77477.88;;;-142.75;89.37
41632;BME280;37452;51.938;4.624;2023-05-23T14:53:19;77503.47;;;-142.75;90.69
41632;BME280;37452;51.938;4.624;2023-05-23T14:55:46;77521.19;;;-142.75;90.30
41632;BME280;37452;51.938;4.624;2023-05-23T14:58:11;77523.16;;;-142.75;92.15
41632;BME280;37452;51.938;4.624;2023-05-23T15:00:37;77527.09;;;-142.75;91.41
41632;BME280;37452;51.938;4.624;2023-05-23T15:03:04;77534.97;;;-142.75;92.20
41632;BME280;37452;51.938;4.624;2023-05-23T15:05:29;77534.97;;;-142.75;91.61
41632;BME280;37452;51.938;4.624;2023-05-23T15:07:55;77546.78;;;-142.75;91.23
41632;BME280;37452;51.938;4.624;2023-05-23T15:10:20;77538.91;;;-142.75;95.79
41632;BME280;37452;51.938;4.624;2023-05-23T15:12:46;77531.03;;;-142.75;95.04
41632;BME280;37452;51.938;4.624;2023-05-23T15:15:11;77531.03;;;-142.75;94.57
41632;BME280;37452;51.938;4.624;2023-05-23T15:17:36;77534.97;;;-142.75;95.78
41632;BME280;37452;51.938;4.624;2023-05-23T15:20:02;77531.03;;;-142.75;98.52
41632;BME280;37452;51.938;4.624;2023-05-23T15:22:28;77540.88;;;-142.75;95.49
41632;BME280;37452;51.938;4.624;2023-05-23T15:24:53;77552.69;;;-142.75;94.20
41632;BME280;37452;51.938;4.624;2023-05-23T15:27:18;77574.34;;;-142.75;93.64
41632;BME280;37452;51.938;4.624;2023-05-23T15:29:48;77578.28;;;-142.75;94.45
41632;BME280;37452;51.938;4.624;2023-05-23T15:32:13;77580.25;;;-142.75;96.04
41632;BME280;37452;51.938;4.624;2023-05-23T15:34:39;77576.31;;;-142.75;96.04
41632;BME280;37452;51.938;4.624;2023-05-23T15:37:04;77590.09;;;-142.75;95.85
41632;BME280;37452;51.938;4.624;2023-05-23T15:39:30;77596.00;;;-142.75;95.20
41632;BME280;37452;51.938;4.624;2023-05-23T15:41:55;77580.25;;;-142.75;96.52
41632;BME280;37452;51.938;4.624;2023-05-23T15:44:20;77588.13;;;-142.75;93.83
41632;BME280;37452;51.938;4.624;2023-05-23T15:46:47;77586.16;;;-142.75;95.84
41632;BME280;37452;51.938;4.624;2023-05-23T15:49:13;77601.91;;;-142.75;94.08
41632;BME280;37452;51.938;4.624;2023-05-23T15:51:38;77609.78;;;-142.75;96.08
41632;BME280;37452;51.938;4.624;2023-05-23T15:54:04;77615.69;;;-142.75;97.05
41632;BME280;37452;51.938;4.624;2023-05-23T15:56:29;77617.66;;;-142.75;99.28
41632;BME280;37452;51.938;4.624;2023-05-23T15:58:54;77641.28;;;-142.75;98.42
41632;BME280;37452;51.938;4.624;2023-05-23T16:01:20;77625.53;;;-142.75;100.00
41632;BME280;37452;51.938;4.624;2023-05-23T16:03:46;77641.28;;;-142.75;99.78
41632;BME280;37452;51.938;4.624;2023-05-23T16:06:11;77629.47;;;-142.75;100.00
41632;BME280;37452;51.938;4.624;2023-05-23T16:08:37;77645.22;;;-142.75;98.55
41632;BME280;37452;51.938;4.624;2023-05-23T16:11:02;77660.97;;;-142.75;99.22
41632;BME280;37452;51.938;4.624;2023-05-23T16:13:27;77670.81;;;-142.75;100.00
41632;BME280;37452;51.938;4.624;2023-05-23T16:15:53;77670.81;;;-142.75;99.95
41632;BME280;37452;51.938;4.624;2023-05-23T16:18:18;77662.94;;;-142.75;100.00
41632;BME280;37452;51.938;4.624;2023-05-23T16:20:43;77657.03;;;-142.75;99.21
41632;BME280;37452;51.938;4.624;2023-05-23T16:23:09;77672.78;;;-142.75;98.76
41632;BME280;37452;51.938;4.624;2023-05-23T16:25:34;77664.91;;;-142.75;98.34
41632;BME280;37452;51.938;4.624;2023-05-23T16:27:59;77680.66;;;-142.75;98.97
41632;BME280;37452;51.938;4.624;2023-05-23T16:30:25;77662.94;;;-142.75;100.00
41632;BME280;37452;51.938;4.624;2023-05-23T16:32:52;77668.84;;;-142.75;100.00
41632;BME280;37452;51.938;4.624;2023-05-23T16:35:17;77668.84;;;-142.75;100.00
41632;BME280;37452;51.938;4.624;2023-05-23T16:37:43;77666.88;;;-142.75;100.00
41632;BME280;37452;51.938;4.624;2023-05-23T16:40:08;77686.56;;;-142.75;98.62
41632;BME280;37452;51.938;4.624;2023-05-23T16:42:35;77686.56;;;-142.75;98.28
41632;BME280;37452;51.938;4.624;2023-05-23T16:45:00;77678.69;;;-142.75;100.00
41632;BME280;37452;51.938;4.624;2023-05-23T16:47:26;77716.09;;;-142.75;96.00
41632;BME280;37452;51.938;4.624;2023-05-23T16:49:51;77708.22;;;-142.75;100.00
41632;BME280;37452;51.938;4.624;2023-05-23T16:52:16;77706.25;;;-142.75;100.00
41632;BME280;37452;51.938;4.624;2023-05-23T16:54:43;77718.06;;;-142.75;99.08
41632;BME280;37452;51.938;4.624;2023-05-23T16:57:09;77720.03;;;-142.75;100.00
41632;BME280;37452;51.938;4.624;2023-05-23T16:59:35;77727.94;;;-142.75;100.00
41632;BME280;37452;51.938;4.624;2023-05-23T17:02:01;77727.94;;;-142.75;100.00
41632;BME280;37452;51.938;4.624;2023-05-23T17:04:26;77723.97;;;-142.75;100.00
41632;BME280;37452;51.938;4.624;2023-05-23T17:06:51;77725.97;;;-142.75;100.00
41632;BME280;37452;51.938;4.624;2023-05-23T17:09:17;77733.84;;;-142.75;100.00
41632;BME280;37452;51.938;4.624;2023-05-23T17:11:42;77735.81;;;-142.75;100.00
41632;BME280;37452;51.938;4.624;2023-05-23T17:14:08;77737.78;;;-142.75;100.00
41632;BME280;37452;51.938;4.624;2023-05-23T17:16:33;77731.88;;;-142.75;100.00
41632;BME280;37452;51.938;4.624;2023-05-23T17:18:59;77739.75;;;-142.75;100.00
41632;BME280;37452;51.938;4.624;2023-05-23T17:21:25;77755.50;;;-142.75;100.00
41632;BME280;37452;51.938;4.624;2023-05-23T17:23:50;77775.19;;;-142.75;100.00
41632;BME280;37452;51.938;4.624;2023-05-23T17:26:16;77785.03;;;-142.75;100.00
41632;BME280;37452;51.938;4.624;2023-05-23T17:28:41;77794.88;;;-142.75;100.00
41632;BME280;37452;51.938;4.624;2023-05-23T17:31:06;77806.69;;;-142.75;100.00
41632;BME280;37452;51.938;4.624;2023-05-23T17:33:32;77806.69;;;-142.75;100.00
41632;BME280;37452;51.938;4.624;2023-05-23T17:35:57;77822.44;;;-142.75;100.00
41632;BME280;37452;51.938;4.624;2023-05-23T17:38:23;77824.41;;;-142.75;100.00
41632;BME280;37452;51.938;4.624;2023-05-23T17:40:48;77826.38;;;-142.75;100.00
41632;BME280;37452;51.938;4.624;2023-05-23T17:43:14;77828.34;;;-142.75;100.00
41632;BME280;37452;51.938;4.624;2023-05-23T17:45:39;77844.09;;;-142.75;100.00
41632;BME280;37452;51.938;4.624;2023-05-23T17:48:05;77846.06;;;-142.75;100.00
41632;BME280;37452;51.938;4.624;2023-05-23T17:50:31;77844.09;;;-142.75;100.00
41632;BME280;37452;51.938;4.624;2023-05-23T17:52:56;77836.22;;;-142.75;100.00
41632;BME280;37452;51.938;4.624;2023-05-23T17:55:22;77846.06;;;-142.75;100.00
41632;BME280;37452;51.938;4.624;2023-05-23T17:57:47;77848.03;;;-142.75;100.00
41632;BME280;37452;51.938;4.624;2023-05-23T18:00:12;77853.94;;;-142.75;100.00
41632;BME280;37452;51.938;4.624;2023-05-23T18:02:38;77873.63;;;-142.75;100.00
41632;BME280;37452;51.938;4.624;2023-05-23T18:05:03;77871.66;;;-142.75;100.00
41632;BME280;37452;51.938;4.624;2023-05-23T18:07:29;77877.56;;;-142.75;100.00
41632;BME280;37452;51.938;4.624;2023-05-23T18:09:54;77899.22;;;-142.75;100.00
41632;BME280;37452;51.938;4.624;2023-05-23T18:12:23;77909.06;;;-142.75;100.00
41632;BME280;37452;51.938;4.624;2023-05-23T18:14:49;77897.25;;;-142.75;100.00
41632;BME280;37452;51.938;4.624;2023-05-23T18:17:17;77916.97;;;-142.75;100.00
41632;BME280;37452;51.938;4.624;2023-05-23T18:19:44;77920.91;;;-142.75;100.00
41632;BME280;37452;51.938;4.624;2023-05-23T18:22:10;77924.84;;;-142.75;100.00
41632;BME280;37452;51.938;4.624;2023-05-23T18:24:36;77926.81;;;-142.75;100.00
41632;BME280;37452;51.938;4.624;2023-05-23T18:27:02;77924.84;;;-142.75;100.00
41632;BME280;37452;51.938;4.624;2023-05-23T18:29:28;77924.84;;;-142.75;100.00
41632;BME280;37452;51.938;4.624;2023-05-23T18:31:53;77940.59;;;-142.75;100.00
41632;BME280;37452;51.938;4.624;2023-05-23T18:34:20;77940.59;;;-142.75;100.00
41632;BME280;37452;51.938;4.624;2023-05-23T18:36:45;77940.59;;;-142.75;100.00
41632;BME280;37452;51.938;4.624;2023-05-23T18:39:11;77934.69;;;-142.75;100.00
41632;BME280;37452;51.938;4.624;2023-05-23T18:41:38;77934.69;;;-142.75;100.00
41632;BME280;37452;51.938;4.624;2023-05-23T18:44:04;77938.63;;;-142.75;100.00
41632;BME280;37452;51.938;4.624;2023-05-23T18:46:29;77944.53;;;-142.75;100.00
41632;BME280;37452;51.938;4.624;2023-05-23T18:48:54;77944.53;;;-142.75;100.00
41632;BME280;37452;51.938;4.624;2023-05-23T18:51:21;77942.56;;;-142.75;100.00
41632;BME280;37452;51.938;4.624;2023-05-23T18:53:47;77948.47;;;-142.75;100.00
41632;BME280;37452;51.938;4.624;2023-05-23T18:56:12;77956.34;;;-142.75;100.00
41632;BME280;37452;51.938;4.624;2023-05-23T18:58:38;77972.09;;;-142.75;100.00
41632;BME280;37452;51.938;4.624;2023-05-23T19:01:03;77983.91;;;-142.75;100.00
41632;BME280;37452;51.938;4.624;2023-05-23T19:03:29;77983.91;;;-142.75;100.00
41632;BME280;37452;51.938;4.624;2023-05-23T19:05:55;78001.63;;;-142.75;100.00
41632;BME280;37452;51.938;4.624;2023-05-23T19:08:27;78013.44;;;-142.75;100.00
41632;BME280;37452;51.938;4.624;2023-05-23T19:10:52;78019.34;;;-142.75;100.00
41632;BME280;37452;51.938;4.624;2023-05-23T19:13:18;78031.16;;;-142.75;100.00
41632;BME280;37452;51.938;4.624;2023-05-23T19:15:43;78042.97;;;-142.75;100.00
41632;BME280;37452;51.938;4.624;2023-05-23T19:18:09;78052.81;;;-142.75;100.00
41632;BME280;37452;51.938;4.624;2023-05-23T19:20:36;78046.91;;;-142.75;100.00
41632;BME280;37452;51.938;4.624;2023-05-23T19:23:01;78054.81;;;-142.75;100.00
41632;BME280;37452;51.938;4.624;2023-05-23T19:25:26;78054.81;;;-142.75;100.00
41632;BME280;37452;51.938;4.624;2023-05-23T19:27:52;78064.66;;;-142.75;100.00
41632;BME280;37452;51.938;4.624;2023-05-23T19:30:17;78062.69;;;-142.75;100.00
41632;BME280;37452;51.938;4.624;2023-05-23T19:32:42;78078.44;;;-142.75;100.00
41632;BME280;37452;51.938;4.624;2023-05-23T19:35:08;78086.31;;;-142.75;100.00
41632;BME280;37452;51.938;4.624;2023-05-23T19:37:33;78090.25;;;-142.75;100.00
41632;BME280;37452;51.938;4.624;2023-05-23T19:39:59;78094.19;;;-142.75;100.00
41632;BME280;37452;51.938;4.624;2023-05-23T19:42:25;78090.25;;;-142.75;100.00
41632;BME280;37452;51.938;4.624;2023-05-23T19:44:51;78098.13;;;-142.75;100.00